createdAt,value
2023-03-25T00:02:02.277Z,11.36
2023-03-25T00:05:13.314Z,11.32
2023-03-25T00:08:07.257Z,11.26
2023-03-25T00:11:19.167Z,11.20
2023-03-25T00:14:34.436Z,11.15
2023-03-25T00:17:37.288Z,11.14
2023-03-25T00:20:50.168Z,11.12
2023-03-25T00:24:12.341Z,11.10
2023-03-25T00:27:20.271Z,11.07
2023-03-25T00:30:40.203Z,11.02
2023-03-25T00:34:05.254Z,10.97
2023-03-25T00:37:20.295Z,10.93
2023-03-25T00:40:28.247Z,10.88
2023-03-25T00:43:18.261Z,10.81
2023-03-25T00:46:15.208Z,10.74
2023-03-25T00:49:23.263Z,10.66
2023-03-25T00:52:34.174Z,10.62
2023-03-25T00:55:34.205Z,10.59
2023-03-25T00:58:38.158Z,10.54
2023-03-25T01:01:30.301Z,10.52
2023-03-25T01:04:36.201Z,10.51
2023-03-25T01:07:57.158Z,10.47
2023-03-25T01:10:57.120Z,10.40
2023-03-25T01:14:24.076Z,10.34
2023-03-25T01:17:41.230Z,10.25
2023-03-25T01:20:40.157Z,10.17
2023-03-25T01:23:41.280Z,10.09
2023-03-25T01:26:38.126Z,10.07
2023-03-25T01:29:40.189Z,10.04
2023-03-25T01:32:52.171Z,10.02
2023-03-25T01:35:44.253Z,10.01
2023-03-25T01:38:49.162Z,9.98
2023-03-25T01:41:56.170Z,9.92
2023-03-25T01:45:04.165Z,9.87
2023-03-25T01:48:14.172Z,9.82
2023-03-25T01:51:26.189Z,9.75
2023-03-25T01:54:39.093Z,9.69
2023-03-25T01:58:06.154Z,9.67
2023-03-25T02:01:19.160Z,9.68
2023-03-25T02:04:27.213Z,9.66
2023-03-25T02:07:42.126Z,9.64
2023-03-25T02:10:58.175Z,9.64
2023-03-25T02:14:15.647Z,9.60
2023-03-25T02:17:43.326Z,9.55
2023-03-25T02:21:00.225Z,9.48
2023-03-25T02:24:20.146Z,9.42
2023-03-25T02:28:01.012Z,9.40
2023-03-25T02:31:14.058Z,9.41
2023-03-25T02:34:47.193Z,9.39
2023-03-25T02:37:54.146Z,9.39
2023-03-25T02:41:09.104Z,9.39
2023-03-25T02:44:30.020Z,9.37
2023-03-25T02:48:04.170Z,9.35
2023-03-25T02:51:18.212Z,9.34
2023-03-25T02:55:08.942Z,9.35
2023-03-25T02:58:30.268Z,9.38
2023-03-25T03:01:53.041Z,9.43
2023-03-25T03:05:09.113Z,9.46
2023-03-25T03:08:24.055Z,9.46
2023-03-25T03:11:53.068Z,9.46
2023-03-25T03:15:29.674Z,9.43
2023-03-25T03:19:00.066Z,9.41
2023-03-25T03:22:15.924Z,9.41
2023-03-25T03:26:08.676Z,9.42
2023-03-25T03:29:39.999Z,9.43
2023-03-25T03:32:48.202Z,9.43
2023-03-25T03:35:57.920Z,9.42
2023-03-25T03:39:34.591Z,9.37
2023-03-25T03:42:22.917Z,9.35
2023-03-25T03:45:22.319Z,9.32
2023-03-25T03:48:29.027Z,9.31
2023-03-25T03:51:48.853Z,9.28
2023-03-25T03:54:59.728Z,9.23
2023-03-25T03:58:17.992Z,9.21
2023-03-25T04:02:06.195Z,9.17
2023-03-25T04:05:48.648Z,9.15
2023-03-25T04:08:53.137Z,9.08
2023-03-25T04:12:36.643Z,9.03
2023-03-25T04:16:19.510Z,9.00
2023-03-25T04:19:49.624Z,9.01
2023-03-25T04:22:50.147Z,8.99
2023-03-25T04:26:02.090Z,8.94
2023-03-25T04:29:11.868Z,8.93
2023-03-25T04:32:31.858Z,8.90
2023-03-25T04:35:26.938Z,8.89
2023-03-25T04:38:31.984Z,8.86
2023-03-25T04:41:57.974Z,8.82
2023-03-25T04:45:06.907Z,8.83
2023-03-25T04:48:38.944Z,8.83
2023-03-25T04:52:03.036Z,8.82
2023-03-25T04:55:38.632Z,8.82
2023-03-25T04:58:54.117Z,8.81
2023-03-25T05:02:40.244Z,8.78
2023-03-25T05:06:13.165Z,8.77
2023-03-25T05:09:41.891Z,8.78
2023-03-25T05:13:28.114Z,8.80
2023-03-25T05:16:21.218Z,8.79
2023-03-25T05:19:53.256Z,8.80
2023-03-25T05:23:11.988Z,8.81
2023-03-25T05:26:40.721Z,8.80
2023-03-25T05:30:07.998Z,8.77
2023-03-25T05:33:33.944Z,8.75
2023-03-25T05:37:05.974Z,8.76
2023-03-25T05:40:28.385Z,8.77
2023-03-25T05:43:59.974Z,8.78
2023-03-25T05:47:33.283Z,8.78
2023-03-25T05:50:47.920Z,8.77
2023-03-25T05:54:32.932Z,8.76
2023-03-25T05:58:01.902Z,8.84
2023-03-25T06:01:33.210Z,8.88
2023-03-25T06:04:43.989Z,8.94
2023-03-25T06:08:08.948Z,8.99
2023-03-25T06:12:02.035Z,9.02
2023-03-25T06:15:41.322Z,9.02
2023-03-25T06:18:12.304Z,9.06
2023-03-25T06:21:16.786Z,9.12
2023-03-25T06:24:44.832Z,9.19
2023-03-25T06:28:11.996Z,9.24
2023-03-25T06:31:44.041Z,9.22
2023-03-25T06:35:04.859Z,9.23
2023-03-25T06:37:59.915Z,9.27
2023-03-25T06:41:41.943Z,9.32
2023-03-25T06:45:02.916Z,9.39
2023-03-25T06:48:02.094Z,9.45
2023-03-25T06:50:35.358Z,9.46
2023-03-25T06:53:53.003Z,9.44
2023-03-25T06:56:48.964Z,9.42
2023-03-25T06:59:25.353Z,9.42
2023-03-25T07:02:06.964Z,9.47
2023-03-25T07:04:37.645Z,9.50
2023-03-25T07:07:08.565Z,9.52
2023-03-25T07:09:39.322Z,9.55
2023-03-25T07:12:10.459Z,9.57
2023-03-25T07:14:41.179Z,9.62
2023-03-25T07:17:12.777Z,9.64
2023-03-25T07:19:44.062Z,9.67
2023-03-25T07:22:14.527Z,9.70
2023-03-25T07:24:45.130Z,9.75
2023-03-25T07:27:17.395Z,9.80
2023-03-25T07:29:54.361Z,9.75
2023-03-25T07:32:25.037Z,9.72
2023-03-25T07:34:56.125Z,9.75
2023-03-25T07:37:26.642Z,9.79
2023-03-25T07:39:57.561Z,9.79
2023-03-25T07:42:28.118Z,9.79
2023-03-25T07:45:19.915Z,9.83
2023-03-25T07:47:51.372Z,9.90
2023-03-25T07:50:25.620Z,10.00
2023-03-25T07:52:57.320Z,10.10
2023-03-25T07:55:28.179Z,10.25
2023-03-25T07:58:01.462Z,10.45
2023-03-25T08:00:35.879Z,10.61
2023-03-25T08:03:06.949Z,10.76
2023-03-25T08:05:38.785Z,10.87
2023-03-25T08:08:09.843Z,10.97
2023-03-25T08:10:40.665Z,11.06
2023-03-25T08:13:11.639Z,11.15
2023-03-25T08:15:43.126Z,11.17
2023-03-25T08:18:14.106Z,11.17
2023-03-25T08:20:44.837Z,11.18
2023-03-25T08:23:20.277Z,11.15
2023-03-25T08:25:54.130Z,11.17
2023-03-25T08:28:25.095Z,11.17
2023-03-25T08:30:56.538Z,11.17
2023-03-25T08:33:34.758Z,11.19
2023-03-25T08:36:05.474Z,11.22
2023-03-25T08:38:39.029Z,11.26
2023-03-25T08:41:10.158Z,11.30
2023-03-25T08:43:43.061Z,11.33
2023-03-25T08:46:15.243Z,11.35
2023-03-25T08:48:50.120Z,11.40
2023-03-25T08:51:21.081Z,11.40
2023-03-25T08:53:52.333Z,11.38
2023-03-25T08:56:24.045Z,11.37
2023-03-25T08:58:56.384Z,11.39
2023-03-25T09:01:27.371Z,11.43
2023-03-25T09:03:58.215Z,11.45
2023-03-25T09:06:28.687Z,11.45
2023-03-25T09:09:18.884Z,11.45
2023-03-25T09:11:55.213Z,11.44
2023-03-25T09:14:27.112Z,11.43
2023-03-25T09:16:57.877Z,11.44
2023-03-25T09:19:28.893Z,11.41
2023-03-25T09:21:59.522Z,11.40
2023-03-25T09:24:30.349Z,11.40
2023-03-25T09:27:05.262Z,11.41
2023-03-25T09:29:37.350Z,11.44
2023-03-25T09:32:08.017Z,11.50
2023-03-25T09:34:39.877Z,11.54
2023-03-25T09:37:10.542Z,11.57
2023-03-25T09:39:41.454Z,11.59
2023-03-25T09:42:12.171Z,11.64
2023-03-25T09:45:11.416Z,11.67
2023-03-25T09:47:54.109Z,11.65
2023-03-25T09:50:25.852Z,11.62
2023-03-25T09:53:02.650Z,11.61
2023-03-25T09:55:41.783Z,11.60
2023-03-25T09:58:21.324Z,11.61
2023-03-25T10:01:07.730Z,11.68
2023-03-25T10:04:16.879Z,11.74
2023-03-25T10:07:02.015Z,11.79
2023-03-25T10:09:32.899Z,11.79
2023-03-25T10:12:16.244Z,11.80
2023-03-25T10:15:14.875Z,11.80
2023-03-25T10:17:59.636Z,11.79
2023-03-25T10:20:43.825Z,11.73
2023-03-25T10:23:44.055Z,11.68
2023-03-25T10:26:24.330Z,11.68
2023-03-25T10:29:05.157Z,11.72
2023-03-25T10:31:40.836Z,11.78
2023-03-25T10:34:18.954Z,11.80
2023-03-25T10:36:58.316Z,11.85
2023-03-25T10:39:37.812Z,11.89
2023-03-25T10:42:29.540Z,11.90
2023-03-25T10:45:00.427Z,11.91
2023-03-25T10:47:35.078Z,11.90
2023-03-25T10:50:06.339Z,11.88
2023-03-25T10:52:36.909Z,11.88
2023-03-25T10:55:24.980Z,11.86
2023-03-25T10:57:57.805Z,11.88
2023-03-25T11:00:30.977Z,11.88
2023-03-25T11:03:02.471Z,11.91
2023-03-25T11:05:52.328Z,11.97
2023-03-25T11:08:32.822Z,12.08
2023-03-25T11:11:08.663Z,12.18
2023-03-25T11:13:41.773Z,12.21
2023-03-25T11:16:15.710Z,12.24
2023-03-25T11:18:48.892Z,12.24
2023-03-25T11:21:21.637Z,12.28
2023-03-25T11:23:54.411Z,12.28
2023-03-25T11:26:46.604Z,12.29
2023-03-25T11:29:31.108Z,12.28
2023-03-25T11:32:17.279Z,12.30
2023-03-25T11:34:52.388Z,12.46
2023-03-25T11:37:25.745Z,12.64
2023-03-25T11:39:57.892Z,12.71
2023-03-25T11:42:43.032Z,12.73
2023-03-25T11:45:28.846Z,12.74
2023-03-25T11:48:12.289Z,12.66
2023-03-25T11:50:52.844Z,12.56
2023-03-25T11:53:28.076Z,12.49
2023-03-25T11:56:04.975Z,12.49
2023-03-25T11:58:38.922Z,12.57
2023-03-25T12:01:24.363Z,12.66
2023-03-25T12:04:07.252Z,12.82
2023-03-25T12:06:37.942Z,12.89
2023-03-25T12:09:16.398Z,12.95
2023-03-25T12:12:19.182Z,12.98
2023-03-25T12:15:44.553Z,12.91
2023-03-25T12:18:31.491Z,12.72
2023-03-25T12:21:08.435Z,12.62
2023-03-25T12:23:54.185Z,12.59
2023-03-25T12:26:53.006Z,12.61
2023-03-25T12:29:42.229Z,12.62
2023-03-25T12:32:29.061Z,12.65
2023-03-25T12:35:22.640Z,12.66
2023-03-25T12:38:34.892Z,12.65
2023-03-25T12:41:24.278Z,12.59
2023-03-25T12:44:22.365Z,12.53
2023-03-25T12:47:32.481Z,12.39
2023-03-25T12:50:34.985Z,11.97
2023-03-25T12:54:02.570Z,11.60
2023-03-25T12:56:40.025Z,11.42
2023-03-25T12:59:38.437Z,11.46
2023-03-25T13:02:48.257Z,11.60
2023-03-25T13:05:26.214Z,11.68
2023-03-25T13:08:21.953Z,11.76
2023-03-25T13:11:39.154Z,11.82
2023-03-25T13:14:24.507Z,11.89
2023-03-25T13:17:01.764Z,11.93
2023-03-25T13:19:39.998Z,11.93
2023-03-25T13:22:24.502Z,11.98
2023-03-25T13:25:01.472Z,12.11
2023-03-25T13:27:37.975Z,12.24
2023-03-25T13:30:18.901Z,12.37
2023-03-25T13:32:56.428Z,12.48
2023-03-25T13:35:53.011Z,12.61
2023-03-25T13:38:58.565Z,12.69
2023-03-25T13:41:49.309Z,12.70
2023-03-25T13:44:28.063Z,12.69
2023-03-25T13:47:07.256Z,12.69
2023-03-25T13:50:15.480Z,12.66
2023-03-25T14:16:11.716Z,12.39
2023-03-25T14:18:48.444Z,12.39
2023-03-25T14:21:37.340Z,12.42
2023-03-25T14:24:21.692Z,12.46
2023-03-25T14:26:58.357Z,12.50
2023-03-25T14:29:46.047Z,12.55
2023-03-25T14:32:20.087Z,12.55
2023-03-25T14:39:33.250Z,12.48
2023-03-25T14:42:11.655Z,12.43
2023-03-25T14:44:50.113Z,12.37
2023-03-25T14:47:22.723Z,12.32
2023-03-25T14:50:05.846Z,12.29
2023-03-25T14:52:45.369Z,12.26
2023-03-25T14:55:30.599Z,12.23
2023-03-25T14:58:11.010Z,12.21
2023-03-25T15:00:49.819Z,12.21
2023-03-25T15:03:30.490Z,12.20
2023-03-25T15:06:03.214Z,12.18
2023-03-25T15:08:42.507Z,12.15
2023-03-25T15:11:20.406Z,12.13
2023-03-25T15:13:56.997Z,12.12
2023-03-25T15:16:56.996Z,12.09
2023-03-25T15:19:29.397Z,12.02
2023-03-25T15:22:01.377Z,11.92
2023-03-25T15:28:07.782Z,11.84
2023-03-25T15:30:59.435Z,11.85
2023-03-25T15:34:02.026Z,11.87
2023-03-25T15:36:57.603Z,11.88
2023-03-25T15:39:58.446Z,11.90
2023-03-25T15:42:49.536Z,11.91
2023-03-25T15:45:41.088Z,11.90
2023-03-25T15:48:30.222Z,11.89
2023-03-25T15:51:36.833Z,11.86
2023-03-25T16:03:08.392Z,11.58
2023-03-25T16:09:57.059Z,11.50
2023-03-25T16:12:28.028Z,11.44
2023-03-25T16:15:00.779Z,11.44
2023-03-25T16:20:49.754Z,11.46
2023-03-25T16:23:24.019Z,11.44
2023-03-25T16:25:56.706Z,11.42
2023-03-25T16:28:36.785Z,11.40
2023-03-25T16:31:08.790Z,11.38
2023-03-25T16:33:44.118Z,11.35
2023-03-25T16:36:18.879Z,11.32
2023-03-25T16:39:19.784Z,11.30
2023-03-25T16:46:26.346Z,11.17
2023-03-25T16:49:01.585Z,11.10
2023-03-25T16:55:04.150Z,11.05
2023-03-25T16:57:40.461Z,11.07
2023-03-25T17:00:24.439Z,11.06
2023-03-25T17:02:55.675Z,11.07
2023-03-25T17:05:32.295Z,11.08
2023-03-25T17:12:30.805Z,11.05
2023-03-25T17:15:10.234Z,11.02
2023-03-25T17:17:47.782Z,11.01
2023-03-25T17:29:34.850Z,10.83
2023-03-25T17:32:07.494Z,10.84
2023-03-25T17:39:03.911Z,10.86
2023-03-25T17:41:45.034Z,10.85
2023-03-25T17:44:20.719Z,10.78
2023-03-25T17:46:52.744Z,10.71
2023-03-25T17:49:24.693Z,10.65
2023-03-25T17:51:58.677Z,10.62
2023-03-25T17:54:43.480Z,10.61
2023-03-25T17:57:21.867Z,10.62
2023-03-25T17:59:56.083Z,10.64
2023-03-25T18:02:45.304Z,10.68
2023-03-25T18:05:16.920Z,10.70
2023-03-25T18:07:47.500Z,10.72
2023-03-25T18:10:23.104Z,10.74
2023-03-25T18:13:18.976Z,10.74
2023-03-25T18:15:56.384Z,10.71
2023-03-25T18:23:03.341Z,10.61
2023-03-25T18:25:37.944Z,10.57
2023-03-25T18:28:09.744Z,10.57
2023-03-25T18:30:55.428Z,10.57
2023-03-25T18:33:32.225Z,10.57
2023-03-25T18:36:04.479Z,10.58
2023-03-25T18:43:06.524Z,10.57
2023-03-25T18:45:40.092Z,10.54
2023-03-25T18:48:18.539Z,10.51
2023-03-25T18:50:59.203Z,10.48
2023-03-25T18:53:37.953Z,10.44
2023-03-25T18:56:13.332Z,10.42
2023-03-25T18:58:45.738Z,10.40
2023-03-25T19:01:19.237Z,10.36
2023-03-25T19:03:52.564Z,10.33
2023-03-25T19:06:26.508Z,10.32
2023-03-25T19:09:07.046Z,10.30
2023-03-25T19:12:08.068Z,10.26
2023-03-25T19:14:55.052Z,10.20
2023-03-25T19:17:30.400Z,10.17
2023-03-25T19:20:06.820Z,10.12
2023-03-25T19:22:46.247Z,10.10
2023-03-25T19:25:22.606Z,10.07
2023-03-25T19:27:54.990Z,10.05
2023-03-25T19:30:29.304Z,10.01
2023-03-25T19:33:07.901Z,10.01
2023-03-25T19:35:44.181Z,10.00
2023-03-25T19:38:20.080Z,9.99
2023-03-25T19:40:54.561Z,9.97
2023-03-25T19:43:28.181Z,9.95
2023-03-25T19:46:06.847Z,9.88
2023-03-25T19:48:42.595Z,9.82
2023-03-25T19:51:15.486Z,9.79
2023-03-25T19:53:49.580Z,9.80
2023-03-25T19:56:24.180Z,9.82
2023-03-25T19:58:59.445Z,9.82
2023-03-25T20:01:32.055Z,9.82
2023-03-25T20:04:12.227Z,9.81
2023-03-25T20:06:46.375Z,9.79
2023-03-25T20:09:19.080Z,9.77
2023-03-25T20:11:51.786Z,9.76
2023-03-25T20:14:26.871Z,9.73
2023-03-25T20:17:00.380Z,9.70
2023-03-25T20:19:34.587Z,9.67
2023-03-25T20:22:18.458Z,9.67
2023-03-25T20:25:02.840Z,9.66
2023-03-25T20:27:36.361Z,9.66
2023-03-25T20:30:11.758Z,9.66
2023-03-25T20:32:44.994Z,9.67
2023-03-25T20:35:41.622Z,9.67
2023-03-25T20:38:16.516Z,9.64
2023-03-25T20:40:51.529Z,9.62
2023-03-25T20:43:26.435Z,9.61
2023-03-25T20:46:01.083Z,9.58
2023-03-25T20:48:37.598Z,9.55
2023-03-25T20:51:12.662Z,9.53
2023-03-25T20:53:48.267Z,9.52
2023-03-25T20:56:24.147Z,9.53
2023-03-25T20:58:58.848Z,9.53
2023-03-25T21:01:39.719Z,9.56
2023-03-25T21:04:12.644Z,9.55
2023-03-25T21:06:45.899Z,9.54
2023-03-25T21:09:18.089Z,9.52
2023-03-25T21:11:49.979Z,9.51
2023-03-25T21:14:22.656Z,9.48
2023-03-25T21:16:55.293Z,9.47
2023-03-25T21:19:35.148Z,9.50
2023-03-25T21:22:07.431Z,9.53
2023-03-25T21:24:38.688Z,9.55
2023-03-25T21:27:38.164Z,9.58
2023-03-25T21:31:22.500Z,9.58
2023-03-25T21:33:57.826Z,9.58
2023-03-25T21:36:32.716Z,9.57
2023-03-25T21:39:07.360Z,9.59
2023-03-25T21:42:00.438Z,9.59
2023-03-25T21:46:29.238Z,9.60
2023-03-25T21:49:04.373Z,9.61
2023-03-25T22:00:14.946Z,9.62
2023-03-25T22:08:50.382Z,9.58
2023-03-25T22:11:29.681Z,9.53
2023-03-25T22:14:00.606Z,9.49
2023-03-25T22:16:48.713Z,9.44
2023-03-25T22:19:20.193Z,9.44
2023-03-25T22:21:51.937Z,9.43
2023-03-25T22:24:22.686Z,9.43
2023-03-25T22:26:53.574Z,9.45
2023-03-25T22:29:25.227Z,9.47
2023-03-25T22:35:42.151Z,9.46
2023-03-25T22:38:12.867Z,9.43
2023-03-25T22:40:43.385Z,9.41
2023-03-25T22:43:23.488Z,9.37
2023-03-25T22:45:54.202Z,9.33
2023-03-25T22:48:26.985Z,9.29
2023-03-25T22:50:58.507Z,9.24
2023-03-25T22:53:35.804Z,9.24
2023-03-25T22:56:07.170Z,9.24
2023-03-25T22:58:39.250Z,9.23
2023-03-25T23:05:40.763Z,9.27
2023-03-25T23:08:11.884Z,9.27
2023-03-25T23:10:46.107Z,9.24
2023-03-25T23:13:21.099Z,9.21
2023-03-25T23:15:52.036Z,9.18
2023-03-25T23:18:23.023Z,9.15
2023-03-25T23:27:06.690Z,9.17
2023-03-25T23:29:39.883Z,9.16
2023-03-25T23:32:11.683Z,9.16
2023-03-25T23:38:15.391Z,9.17
2023-03-25T23:40:46.537Z,9.18
2023-03-25T23:43:17.186Z,9.17
2023-03-25T23:45:47.994Z,9.15
2023-03-25T23:48:34.384Z,9.13
2023-03-25T23:51:05.807Z,9.09
2023-03-25T23:53:40.158Z,9.04
2023-03-25T23:56:11.260Z,9.05
